createdAt,value
2023-05-19T00:00:29.265Z,102967.00
2023-05-19T00:05:31.229Z,102964.41
2023-05-19T00:10:33.366Z,102963.59
2023-05-19T00:15:35.405Z,102967.06
2023-05-19T00:20:36.914Z,102963.66
2023-05-19T00:25:38.380Z,102958.63
2023-05-19T00:30:39.837Z,102962.09
2023-05-19T00:35:41.287Z,102956.97
2023-05-19T00:40:43.117Z,102944.16
2023-05-19T00:45:44.589Z,102948.56
2023-05-19T00:50:46.268Z,102946.84
2023-05-19T00:55:48.571Z,102948.59
2023-05-19T01:00:50.411Z,102952.88
2023-05-19T01:05:52.189Z,102945.19
2023-05-19T01:10:53.633Z,102949.47
2023-05-19T01:16:00.995Z,102950.34
2023-05-19T01:21:46.178Z,102949.56
2023-05-19T01:27:36.931Z,102959.88
2023-05-19T01:32:41.247Z,102944.47
2023-05-19T01:37:43.700Z,102947.00
2023-05-19T01:42:47.057Z,102950.41
2023-05-19T01:47:52.208Z,102959.00
2023-05-19T01:52:53.910Z,102963.25
2023-05-19T01:58:30.713Z,102970.13
2023-05-19T02:03:50.615Z,102968.44
2023-05-19T02:08:52.139Z,102970.16
2023-05-19T02:13:56.911Z,102965.91
2023-05-19T02:18:58.552Z,102965.91
2023-05-19T02:24:00.122Z,102955.63
2023-05-19T02:29:01.600Z,102963.34
2023-05-19T02:34:03.106Z,102952.19
2023-05-19T02:39:04.731Z,102957.34
2023-05-19T02:44:06.272Z,102950.50
2023-05-19T02:49:07.942Z,102957.34
2023-05-19T02:54:09.431Z,102962.47
2023-05-19T02:59:10.915Z,102950.50
2023-05-19T03:04:12.498Z,102954.78
2023-05-19T03:09:14.038Z,102952.22
2023-05-19T03:14:15.689Z,102941.09
2023-05-19T03:19:17.261Z,102943.66
2023-05-19T03:24:18.810Z,102941.97
2023-05-19T03:29:20.294Z,102932.56
2023-05-19T03:34:22.003Z,102929.97
2023-05-19T03:39:24.742Z,102940.22
2023-05-19T03:44:26.706Z,102942.78
2023-05-19T03:49:28.953Z,102943.66
2023-05-19T03:54:40.922Z,102947.06
2023-05-19T03:59:42.490Z,102946.22
2023-05-19T04:04:44.023Z,102947.06
2023-05-19T04:09:45.594Z,102954.78
2023-05-19T04:14:47.046Z,102953.06
2023-05-19T04:19:48.500Z,102957.31
2023-05-19T04:24:49.991Z,102955.59
2023-05-19T04:29:51.585Z,102961.59
2023-05-19T04:34:53.241Z,102959.88
2023-05-19T04:39:59.340Z,102953.88
2023-05-19T04:45:02.302Z,102954.75
2023-05-19T04:50:05.687Z,102951.28
2023-05-19T04:55:07.567Z,102958.09
2023-05-19T05:00:10.451Z,102949.44
2023-05-19T05:05:20.727Z,102959.72
2023-05-19T05:10:22.257Z,102957.94
2023-05-19T05:15:24.080Z,102960.41
2023-05-19T05:20:26.688Z,102955.22
2023-05-19T05:25:28.834Z,102962.81
2023-05-19T05:30:31.768Z,102956.84
2023-05-19T05:35:33.671Z,102960.19
2023-05-19T05:40:35.545Z,102960.16
2023-05-19T05:45:38.750Z,102951.28
2023-05-19T05:50:43.354Z,102959.63
2023-05-19T05:55:46.391Z,102952.91
2023-05-19T06:00:49.025Z,102963.16
2023-05-19T06:05:50.697Z,102961.25
2023-05-19T06:10:52.948Z,102967.22
2023-05-19T06:15:54.528Z,102969.41
2023-05-19T06:21:01.183Z,102962.63
2023-05-19T06:26:02.710Z,102967.28
2023-05-19T06:31:05.224Z,102960.16
2023-05-19T06:36:17.286Z,102957.59
2023-05-19T06:41:20.178Z,102961.69
2023-05-19T06:46:22.706Z,102956.97
2023-05-19T06:51:24.218Z,102954.34
2023-05-19T06:56:30.198Z,102956.00
2023-05-19T07:01:31.804Z,102962.38
2023-05-19T07:06:34.133Z,102963.81
2023-05-19T07:11:35.957Z,102968.72
2023-05-19T07:16:37.789Z,102966.56
2023-05-19T07:21:40.654Z,102961.72
2023-05-19T07:26:42.260Z,102964.16
2023-05-19T07:31:43.792Z,102960.09
2023-05-19T07:36:45.273Z,102971.91
2023-05-19T07:41:46.792Z,102958.97
2023-05-19T07:46:48.298Z,102959.94
2023-05-19T07:51:49.836Z,102959.16
2023-05-19T07:56:51.386Z,102951.22
2023-05-19T08:01:52.856Z,102951.38
2023-05-19T08:06:54.343Z,102959.84
2023-05-19T08:11:55.879Z,102950.97
2023-05-19T08:16:57.397Z,102945.78
2023-05-19T08:21:58.905Z,102937.31
2023-05-19T08:27:00.439Z,102946.78
2023-05-19T08:32:02.010Z,102941.59
2023-05-19T08:37:03.575Z,102936.81
2023-05-19T08:42:05.481Z,102934.28
2023-05-19T08:47:07.782Z,102933.63
2023-05-19T08:58:12.873Z,102927.19
2023-05-19T09:03:22.763Z,102918.25
2023-05-19T09:08:25.092Z,102912.28
2023-05-19T09:13:26.841Z,102914.13
2023-05-19T09:18:28.336Z,102917.22
2023-05-19T09:23:32.153Z,102915.28
2023-05-19T09:28:35.312Z,102914.31
2023-05-19T09:33:37.914Z,102909.44
2023-05-19T09:38:39.672Z,102904.00
2023-05-19T09:43:41.117Z,102900.66
2023-05-19T09:48:42.653Z,102888.41
2023-05-19T09:53:46.397Z,102885.34
2023-05-19T09:58:48.619Z,102876.38
2023-05-19T10:03:50.950Z,102875.66
2023-05-19T10:08:53.026Z,102863.38
2023-05-19T10:13:54.622Z,102853.13
2023-05-19T10:18:58.480Z,102853.72
2023-05-19T10:23:59.992Z,102849.50
2023-05-19T10:29:03.292Z,102842.00
2023-05-19T10:34:04.731Z,102835.38
2023-05-19T10:39:11.292Z,102845.66
2023-05-19T10:44:28.094Z,102825.75
2023-05-19T10:49:35.056Z,102832.03
2023-05-19T10:54:40.388Z,102831.00
2023-05-19T10:59:41.768Z,102835.03
2023-05-19T11:04:49.532Z,102829.16
2023-05-19T11:09:53.305Z,102821.41
2023-05-19T11:14:55.294Z,102820.09
2023-05-19T11:19:57.764Z,102812.06
2023-05-19T11:24:59.251Z,102815.41
2023-05-19T11:30:08.232Z,102807.16
2023-05-19T11:35:10.392Z,102805.88
2023-05-19T11:40:13.219Z,102809.06
2023-05-19T11:45:14.698Z,102809.66
2023-05-19T11:50:16.553Z,102800.78
2023-05-19T11:55:19.924Z,102804.19
2023-05-19T12:00:22.769Z,102793.47
2023-05-19T12:05:26.115Z,102797.16
2023-05-19T12:10:29.128Z,102793.31
2023-05-19T12:15:31.944Z,102787.09
2023-05-19T12:20:34.131Z,102795.69
2023-05-19T12:25:35.939Z,102788.72
2023-05-19T12:30:37.938Z,102793.13
2023-05-19T12:35:39.862Z,102776.66
2023-05-19T12:40:41.630Z,102783.13
2023-05-19T12:45:43.120Z,102765.53
2023-05-19T12:50:44.765Z,102763.59
2023-05-19T12:55:46.251Z,102759.09
2023-05-19T13:00:48.415Z,102755.41
2023-05-19T13:05:50.875Z,102763.91
2023-05-19T13:10:52.328Z,102752.84
2023-05-19T13:15:53.831Z,102759.59
2023-05-19T13:20:55.270Z,102746.41
2023-05-19T13:25:56.751Z,102741.53
2023-05-19T13:30:58.243Z,102745.63
2023-05-19T13:35:59.776Z,102730.53
2023-05-19T13:41:01.245Z,102731.03
2023-05-19T13:46:02.804Z,102726.16
2023-05-19T13:51:04.372Z,102732.50
2023-05-19T13:56:07.086Z,102725.69
2023-05-19T14:01:08.625Z,102726.81
2023-05-19T14:06:10.161Z,102718.59
2023-05-19T14:11:18.216Z,102708.53
2023-05-19T14:16:19.952Z,102706.09
2023-05-19T14:21:21.623Z,102699.50
2023-05-19T14:26:23.168Z,102700.78
2023-05-19T14:31:24.822Z,102705.56
2023-05-19T14:36:26.945Z,102704.94
2023-05-19T14:41:28.422Z,102697.16
2023-05-19T14:46:29.952Z,102698.56
2023-05-19T14:51:31.454Z,102705.41
2023-05-19T14:56:32.963Z,102711.69
2023-05-19T15:01:34.465Z,102703.59
2023-05-19T15:06:35.935Z,102706.50
2023-05-19T15:11:37.419Z,102710.53
2023-05-19T15:16:38.922Z,102710.28
2023-05-19T15:21:40.391Z,102703.81
2023-05-19T15:26:42.015Z,102695.34
2023-05-19T15:31:43.736Z,102691.84
2023-05-19T15:36:45.264Z,102699.00
2023-05-19T15:41:46.724Z,102697.75
2023-05-19T15:46:48.340Z,102701.66
2023-05-19T15:51:49.901Z,102688.88
2023-05-19T15:56:51.359Z,102683.94
2023-05-19T16:01:53.308Z,102682.09
2023-05-19T16:06:54.899Z,102684.81
2023-05-19T16:11:56.335Z,102684.09
2023-05-19T16:16:57.770Z,102683.31
2023-05-19T16:21:59.246Z,102688.78
2023-05-19T16:27:00.690Z,102693.38
2023-05-19T16:32:02.240Z,102683.44
2023-05-19T16:37:04.000Z,102683.19
2023-05-19T16:42:05.677Z,102695.31
2023-05-19T16:47:07.154Z,102677.53
2023-05-19T16:52:08.621Z,102687.78
2023-05-19T16:57:10.128Z,102683.66
2023-05-19T17:02:11.667Z,102681.59
2023-05-19T17:07:14.554Z,102693.19
2023-05-19T17:12:16.040Z,102696.44
2023-05-19T17:17:18.087Z,102696.34
2023-05-19T17:22:19.569Z,102688.16
2023-05-19T17:27:21.065Z,102692.22
2023-05-19T17:32:22.638Z,102687.75
2023-05-19T17:37:24.220Z,102690.63
2023-05-19T17:42:25.706Z,102697.75
2023-05-19T17:47:27.249Z,102698.13
2023-05-19T17:52:29.167Z,102707.56
2023-05-19T17:57:33.280Z,102714.00
2023-05-19T18:02:35.078Z,102724.59
2023-05-19T18:07:38.382Z,102717.06
2023-05-19T18:12:39.838Z,102730.53
2023-05-19T18:17:41.371Z,102725.56
2023-05-19T18:22:42.897Z,102721.97
2023-05-19T18:27:44.891Z,102726.47
2023-05-19T18:32:46.382Z,102715.50
2023-05-19T18:37:47.878Z,102723.22
2023-05-19T18:42:50.362Z,102719.59
2023-05-19T18:47:51.866Z,102737.25
2023-05-19T18:52:53.383Z,102742.59
2023-05-19T18:57:54.831Z,102742.53
2023-05-19T19:02:56.413Z,102744.03
2023-05-19T19:07:57.910Z,102737.28
2023-05-19T19:12:59.675Z,102737.34
2023-05-19T19:18:01.196Z,102737.75
2023-05-19T19:23:02.837Z,102737.19
2023-05-19T19:28:04.478Z,102744.28
2023-05-19T19:33:06.831Z,102755.72
2023-05-19T19:38:08.472Z,102746.47
2023-05-19T19:43:09.967Z,102758.47
2023-05-19T19:48:11.619Z,102757.44
2023-05-19T19:53:13.163Z,102769.66
2023-05-19T19:58:14.636Z,102765.81
2023-05-19T20:03:16.193Z,102771.00
2023-05-19T20:08:17.790Z,102767.88
2023-05-19T20:13:19.351Z,102778.34
2023-05-19T20:18:20.835Z,102786.13
2023-05-19T20:23:22.421Z,102794.50
2023-05-19T20:28:24.153Z,102790.38
2023-05-19T20:33:25.766Z,102800.34
2023-05-19T20:38:27.316Z,102793.56
2023-05-19T20:43:28.823Z,102798.94
2023-05-19T20:48:30.467Z,102792.31
2023-05-19T20:53:31.951Z,102801.19
2023-05-19T20:58:33.474Z,102815.44
2023-05-19T21:03:34.970Z,102817.28
2023-05-19T21:08:36.416Z,102818.53
2023-05-19T21:13:37.892Z,102817.09
2023-05-19T21:18:39.367Z,102821.03
2023-05-19T21:23:40.906Z,102829.28
2023-05-19T21:28:42.427Z,102825.59
2023-05-19T21:33:44.163Z,102831.84
2023-05-19T21:38:45.632Z,102835.66
2023-05-19T21:43:47.286Z,102841.13
2023-05-19T21:48:48.851Z,102838.84
2023-05-19T21:53:50.349Z,102829.66
2023-05-19T21:58:51.825Z,102840.34
2023-05-19T22:03:53.337Z,102842.53
2023-05-19T22:08:54.829Z,102844.31
2023-05-19T22:13:56.294Z,102843.53
2023-05-19T22:18:57.919Z,102843.56
2023-05-19T22:23:59.614Z,102836.03
2023-05-19T22:29:01.895Z,102834.53
2023-05-19T22:34:03.404Z,102840.16
2023-05-19T22:39:04.904Z,102831.78
2023-05-19T22:44:06.406Z,102839.81
2023-05-19T22:49:08.027Z,102844.50
2023-05-19T22:54:09.485Z,102847.22
2023-05-19T22:59:11.384Z,102844.97
2023-05-19T23:04:12.906Z,102854.09
2023-05-19T23:09:14.387Z,102855.09
2023-05-19T23:14:16.026Z,102850.91
2023-05-19T23:19:17.550Z,102854.53
2023-05-19T23:24:19.112Z,102854.66
2023-05-19T23:29:20.556Z,102860.75
2023-05-19T23:34:22.022Z,102853.97
2023-05-19T23:39:23.505Z,102854.09
2023-05-19T23:44:24.988Z,102849.03
2023-05-19T23:49:26.522Z,102849.13
2023-05-19T23:54:28.014Z,102849.16
2023-05-19T23:59:29.463Z,102854.47
